Ludlow, SD (57755)

9:11 AM MDT on October 01, 2014 (GMT -0600)
Hettinger Municipal | Change Station
CLOSE
Current Station
Airport
Location: Hettinger,
Elevation: 824 m
Nearby Weather Stations

Elev 824 m 46.01 °N, 102.66 °W | Updated 18 minutes ago

Mostly Cloudy
Mostly Cloudy
11 °C
Feels Like 11 °C
N
22
Wind Variable Wind from East

Today
High -- | Low -- °C
--% Chance of Precip.
Yesterday
High -- | Low -- °C
Precip. -- mm
6:51 AM 6:33 PM
Waxing Crescent, 48% visible
Pressure 1002 hPa
Visibility 0.8 kilometers
Clouds
Dew Point 10 °C
Humidity 93%
Rainfall 2.3 mm
Snow Depth 0 in , 1 in
UV Not available.
Pollen .90 out of 12
Air Quality Not available.
Flu Activity Not available.
METAR KHEI 301453Z AUTO 08012KT 1/2SM FG VV002 11/10 A2960 RMK AO2 RAB03E52 SLP023 P0001 60003 T01110100 56023

More Conditions Fewer Conditions

Pressure 1002 hPa
Visibility 0.8 kilometers
Clouds
Dew Point 10 °C
Humidity 93%
Rainfall 2.3 mm
Snow Depth 0 in , 1 in
UV Not available.
Pollen .90 out of 12
Air Quality Not available.
Flu Activity Not available.
METAR KHEI 301453Z AUTO 08012KT 1/2SM FG VV002 11/10 A2960 RMK AO2 RAB03E52 SLP023 P0001 60003 T01110100 56023

More Conditions Fewer Conditions

10-Day Weather Forecast

Almanac

Astronomy

Oct. 01, 2014 Rise Set
Actual Time 6:51 AM MDT 6:33 PM MDT
Civil Twilight 6:22 AM MDT 7:03 PM MDT
Nautical Twilight 5:47 AM MDT 7:37 PM MDT
Astronomical Twilight 5:12 AM MDT 8:12 PM MDT
Moon 2:08 PM MDT 11:55 PM MDT
Length of Visible Light 12h 40m
Length of Day
11h 41m
Tomorrow will be 3m 12s shorter.
Waxing Crescent, 48% of the Moon is Illuminated
Today
Waxing Crescent
Oct 1
First Quarter
Oct 8
Full
Oct 15
Last Quarter
Oct 23
New

Today's Extremes

State Highs State Lows

Community

WunderPhotos

Upload Photos

1,757,966 photos uploaded!

Nearby

Snow Depth

Station Depth Elevation
North Rapid Creek 0 in 6130 ft
Blind Park 1 in 6890 ft

Earthquake Activity

City Distance Mag. Time & Date
No recent earthquake activity has been reported nearby.
Minimum magnitude displayed is 2.5.

Coastal Water Temperatures

Place Temperature
No Stations Reporting

Nearby Weather Stations